Flight Track Log - Related Links

Times and Time Zones

All times are in EDT time to prevent confusion due to time zone crossing. See the N23WJ flight status page for this flight to view local times or setup timezone preferences in your user account.

Time Position Orientation Groundspeed Altitude Reporting Facility
EDT Latitude Longitude Course Direction KTS MPH feet Rate Location/Type
Mon 05:50:58 PM 27.4994 -80.3031 88° East 190 219 2,000  Level Miami Center
Mon 05:52:58 PM 27.5764 -80.3242 346° North 240 276 6,500 2,300 Climbing Miami Center
Mon 05:53:58 PM 27.5939 -80.3739 292° West 159 183 8,900 2,050 Climbing Miami Center
Mon 05:54:58 PM 27.6117 -80.4192 294° West 154 177 10,600 1,550 Climbing Miami Center
Mon 05:55:58 PM 27.6247 -80.4781 324° Northwest 171 197 12,000 1,550 Climbing Miami Center
Mon 05:56:58 PM 27.6358 -80.5275 284° West 183 211 13,700 1,650 Climbing Miami Center
Mon 05:57:58 PM 27.6492 -80.5842 285° West 188 216 15,300 1,650 Climbing Miami Center
Mon 05:58:58 PM 27.6661 -80.6506 286° West 188 216 17,000 1,100 Climbing Miami Center
Mon 05:59:58 PM 27.6831 -80.7236 285° West 215 247 17,500 500 Climbing Miami Center
Mon 06:00:58 PM 27.7000 -80.7947 285° West 254 292 18,000 600 Climbing Miami Center
Mon 06:01:58 PM 27.7164 -80.8772 283° West 265 305 18,700 1,450 Climbing Miami Center
Mon 06:02:58 PM 27.7333 -80.9458 286° West 252 290 20,900 1,700 Climbing Miami Center
Mon 06:03:58 PM 27.7506 -81.0028 289° West 218 251 22,100 1,050 Climbing Miami Center
Mon 06:04:58 PM 27.7653 -81.0619 286° West 207 238 23,000 1,150 Climbing Miami Center
Mon 06:05:58 PM 27.7800 -81.1306 284° West 202 232 24,400 1,400 Climbing Miami Center
Mon 06:06:58 PM 27.7931 -81.1828 286° West 196 226 25,800 1,250 Climbing Miami Center
Mon 06:07:58 PM 27.8317 -81.2194 320° Northwest 182 209 26,900 950 Climbing Miami Center
Mon 06:08:58 PM 27.8661 -81.2514 321° Northwest 176 203 27,700 550 Climbing Miami Center
Mon 06:09:58 PM 27.9128 -81.2978 319° Northwest 195 224 28,000 150 Climbing Miami Center
Mon 06:10:58 PM 27.9594 -81.3442 319° Northwest 212 244 28,000  Level Miami Center
Mon 06:11:58 PM 28.0119 -81.3981 318° Northwest 239 275 28,000  Level Miami Center
Mon 06:12:58 PM 28.0564 -81.4467 316° Northwest 244 281 28,000  Level Miami Center
Mon 06:13:58 PM 28.1089 -81.5006 318° Northwest 249 287 28,000  Level Miami Center
Mon 06:15:34 PM 28.2078 -81.5783 325° Northwest 249 287 28,000  Level Jacksonville Center
Mon 06:16:34 PM 28.2689 -81.6269 325° Northwest 255 293 28,000  Level Jacksonville Center
Mon 06:17:34 PM 28.3278 -81.6758 324° Northwest 255 293 28,000  Level Jacksonville Center
Mon 06:18:34 PM 28.3867 -81.7222 325° Northwest 262 302 28,000  Level Jacksonville Center
Mon 06:19:34 PM 28.4372 -81.7736 318° Northwest 262 302 28,000  Level Jacksonville Center
Mon 06:20:34 PM 28.4939 -81.8225 323° Northwest 257 296 28,000  Level Jacksonville Center
Mon 06:21:35 PM 28.5486 -81.8764 319° Northwest 257 296 28,000  Level Jacksonville Center
Mon 06:22:34 PM 28.6033 -81.9350 317° Northwest 257 296 28,000  Level Jacksonville Center
Mon 06:23:34 PM 28.6539 -81.9936 315° West 262 302 28,000  Level Jacksonville Center
Mon 06:24:34 PM 28.7147 -82.0544 319° Northwest 262 302 28,000  Level Jacksonville Center
Mon 06:25:34 PM 28.7633 -82.1133 313° West 262 302 28,000  Level Jacksonville Center
Mon 06:26:34 PM 28.8136 -82.1722 314° West 257 296 28,000  Level Jacksonville Center
Mon 06:27:34 PM 28.8661 -82.2311 316° Northwest 257 296 28,000  Level Jacksonville Center
Mon 06:28:34 PM 28.9186 -82.2878 317° Northwest 257 296 28,000  Level Jacksonville Center
Mon 06:29:34 PM 28.9689 -82.3419 317° Northwest 252 290 28,000  Level Jacksonville Center
Mon 06:30:34 PM 29.0214 -82.3964 318° Northwest 247 284 28,000  Level Jacksonville Center
Mon 06:31:34 PM 29.0717 -82.4553 314° West 252 290 28,000  Level Jacksonville Center
Mon 06:32:34 PM 29.1239 -82.5147 315° West 252 290 28,000  Level Jacksonville Center
Mon 06:33:34 PM 29.1742 -82.5714 315° West 252 290 28,000  Level Jacksonville Center
Mon 06:34:34 PM 29.2267 -82.6283 317° Northwest 252 290 28,000  Level Jacksonville Center
Mon 06:35:34 PM 29.2767 -82.6856 315° West 252 290 28,000  Level Jacksonville Center
Mon 06:36:34 PM 29.3292 -82.7425 317° Northwest 252 290 28,000  Level Jacksonville Center
Mon 06:37:34 PM 29.3792 -82.8019 314° West 252 290 28,000  Level Jacksonville Center
Mon 06:38:34 PM 29.4314 -82.8617 315° West 252 290 28,000  Level Jacksonville Center
Mon 06:39:34 PM 29.4814 -82.9189 315° West 252 290 28,000  Level Jacksonville Center
Mon 06:40:34 PM 29.5317 -82.9736 317° Northwest 258 297 28,000  Level Jacksonville Center
Mon 06:41:34 PM 29.5817 -83.0333 314° West 258 297 28,000  Level Jacksonville Center
Mon 06:42:34 PM 29.6317 -83.0908 315° West 253 291 28,000  Level Jacksonville Center
Mon 06:43:34 PM 29.6964 -83.1389 327° Northwest 258 297 28,000  Level Jacksonville Center
Mon 06:44:34 PM 29.7567 -83.1797 330° Northwest 258 297 28,000  Level Jacksonville Center
Mon 06:45:34 PM 29.8192 -83.2253 328° Northwest 263 303 28,000  Level Jacksonville Center
Mon 06:46:34 PM 29.8817 -83.2711 328° Northwest 263 303 28,000  Level Jacksonville Center
Mon 06:47:34 PM 29.9422 -83.3169 327° Northwest 263 303 28,000  Level Jacksonville Center
Mon 06:48:34 PM 30.0067 -83.3650 327° Northwest 263 303 28,000  Level Jacksonville Center
Mon 06:49:34 PM 30.0672 -83.4111 327° Northwest 263 303 28,000  Level Jacksonville Center
Mon 06:50:34 PM 30.1294 -83.4594 326° Northwest 263 303 28,000  Level Jacksonville Center
Mon 06:51:34 PM 30.1900 -83.5053 327° Northwest 263 303 28,000  Level Jacksonville Center
Mon 06:52:34 PM 30.2522 -83.5514 327° Northwest 263 303 28,000  Level Jacksonville Center
Mon 06:53:34 PM 30.3125 -83.6000 325° Northwest 258 297 28,000  Level Jacksonville Center
Mon 06:54:34 PM 30.3728 -83.6461 327° Northwest 258 297 28,000  Level Jacksonville Center
Mon 06:55:34 PM 30.4353 -83.6947 326° Northwest 258 297 28,000  Level Jacksonville Center
Mon 06:56:34 PM 30.4956 -83.7411 326° Northwest 258 297 28,000  Level Jacksonville Center
Mon 06:57:34 PM 30.5600 -83.7875 328° Northwest 258 297 28,000  Level Jacksonville Center
Mon 06:58:34 PM 30.6200 -83.8364 325° Northwest 258 297 28,000  Level Jacksonville Center
Mon 06:59:34 PM 30.6783 -83.8781 328° Northwest 258 297 28,000  Level Jacksonville Center
Mon 07:00:34 PM 30.7383 -83.9247 326° Northwest 258 297 28,000  Level Jacksonville Center
Mon 07:01:34 PM 30.7964 -83.9711 326° Northwest 258 297 28,000  Level Jacksonville Center
Mon 07:02:34 PM 30.8503 -84.0153 325° Northwest 253 291 28,000  Level Jacksonville Center
Mon 07:03:34 PM 30.9083 -84.0597 327° Northwest 253 291 28,000  Level Jacksonville Center
Mon 07:04:34 PM 30.9664 -84.1039 327° Northwest 253 291 28,000  Level Jacksonville Center
Mon 07:05:34 PM 31.0244 -84.1483 327° Northwest 253 291 28,000  Level Jacksonville Center
Mon 07:06:34 PM 31.0825 -84.1928 327° Northwest 253 291 28,000  Level Jacksonville Center
Mon 07:07:34 PM 31.1406 -84.2350 328° Northwest 253 291 28,000  Level Jacksonville Center
Mon 07:08:34 PM 31.1964 -84.2817 324° Northwest 253 291 28,000  Level Jacksonville Center
Mon 07:09:34 PM 31.2544 -84.3239 328° Northwest 248 285 28,000  Level Jacksonville Center
Mon 07:10:34 PM 31.3103 -84.3711 324° Northwest 248 285 28,000  Level Jacksonville Center
Mon 07:12:56 PM 31.4453 -84.4769 326° Northwest 251 289 28,000  Level Atlanta Center
Mon 07:13:56 PM 31.5056 -84.5261 325° Northwest 256 295 28,000  Level Atlanta Center
Mon 07:14:56 PM 31.5661 -84.5725 327° Northwest 261 300 28,000  Level Atlanta Center
Mon 07:15:56 PM 31.6283 -84.6217 326° Northwest 261 300 28,000 -100 Level Atlanta Center
Mon 07:16:56 PM 31.6908 -84.6686 327° Northwest 261 300 27,800 -800 Descending Atlanta Center
Mon 07:17:56 PM 31.7572 -84.7228 325° Northwest 269 310 26,400 -1,250 Descending Atlanta Center
Mon 07:18:56 PM 31.8258 -84.7769 326° Northwest 281 323 25,300 -750 Descending Atlanta Center
Mon 07:19:56 PM 31.8964 -84.8264 329° Northwest 289 333 24,900 -450 Descending Atlanta Center
Mon 07:20:56 PM 31.9736 -84.8444 349° North 284 327 24,400 -450 Descending Atlanta Center
Mon 07:21:56 PM 32.0506 -84.8694 345° North 284 327 24,000 -500 Descending Atlanta Center
Mon 07:22:56 PM 32.1256 -84.8897 347° North 279 321 23,400 -1,000 Descending Atlanta Center
Mon 07:23:56 PM 32.2006 -84.9175 343° North 279 321 22,000 -1,150 Descending Atlanta Center
Mon 07:24:56 PM 32.2819 -84.9406 347° North 284 327 21,100 -950 Descending Atlanta Center
Mon 07:25:56 PM 32.3589 -84.9658 344° North 289 333 20,100 -1,650 Descending Atlanta Center
Mon 07:26:56 PM 32.4381 -84.9961 342° North 289 333 17,800 -1,950 Descending Atlanta Center
Mon 07:27:56 PM 32.5233 -85.0267 343° North 300 345 16,200 -1,350 Descending Atlanta Center
Mon 07:28:56 PM 32.6003 -85.0522 344° North 299 344 15,100 -1,400 Descending Atlanta Center
Mon 07:29:56 PM 32.6733 -85.0728 347° North 287 330 13,400 -1,700 Descending Atlanta Center
Mon 07:30:56 PM 32.7544 -85.0983 345° North 287 330 11,700 -1,450 Descending Atlanta Center
Mon 07:31:56 PM 32.8272 -85.1314 339° North 286 329 10,500 -1,300 Descending Atlanta Center
Mon 07:32:56 PM 32.9000 -85.1547 345° North 286 329 9,100 -680 Descending Atlanta Center
Mon 07:35:19 PM 33.0667 -85.2167 343° North 245 282 8,200 -660 Descending Atlanta TRACON
Mon 07:36:25 PM 33.1333 -85.1833 23° Northeast 273 314 6,800 -800 Descending Atlanta TRACON
Mon 07:37:19 PM 33.2000 -85.1667 12° North 260 299 6,600 105 Descending Atlanta TRACON
Mon 07:38:19 PM 33.2667 -85.1333 23° Northeast 225 259 7,000 200 Climbing Atlanta TRACON
Mon 07:39:19 PM 33.3333 -85.1167 12° North 240 276 7,000 -150 Level Atlanta TRACON
Mon 07:40:19 PM 33.4000 -85.0833 23° Northeast 245 282 6,700 -500 Descending Atlanta TRACON
Mon 07:41:19 PM 33.4500 -85.0500 29° Northeast 252 290 6,000 -600 Descending Atlanta TRACON
Mon 07:42:19 PM 33.5167 -85.0167 23° Northeast 259 298 5,500 -400 Descending Atlanta TRACON
Mon 07:43:19 PM 33.5833 -85.0000 12° North 253 291 5,200 -250 Descending Atlanta TRACON
Mon 07:44:19 PM 33.6500 -84.9667 23° Northeast 253 291 5,000 -50 Descending Atlanta TRACON
Mon 07:45:19 PM 33.7167 -84.9333 23° Northeast 242 278 5,100  Climbing Atlanta TRACON
Mon 07:46:25 PM 33.7833 -84.9167 12° North 233 268 5,000 -48 Descending Atlanta TRACON
Mon 07:47:25 PM 33.8500 -84.8833 23° Northeast 231 266 5,000  Level Atlanta TRACON
Mon 07:48:31 PM 33.8833 -84.8000 64° Northeast 246 283 5,000  Level Atlanta TRACON
Mon 07:49:31 PM 33.9000 -84.7333 73° East 247 284 5,000 50 Level Atlanta TRACON
Mon 07:50:31 PM 33.9333 -84.6500 64° Northeast 244 281 5,100  Climbing Atlanta TRACON
Mon 07:51:31 PM 33.9500 -84.5833 73° East 245 282 5,000 -200 Descending Atlanta TRACON
Mon 07:52:31 PM 33.9833 -84.5000 64° Northeast 253 291 4,700 -450 Descending Atlanta TRACON
Mon 07:53:31 PM 34.0000 -84.4167 76° East 233 268 4,100 -650 Descending Atlanta TRACON
Mon 07:54:31 PM 33.9833 -84.3667 112° Southeast 221 254 3,400 -737 Descending Atlanta TRACON
Mon 07:55:25 PM 33.9500 -84.3167 129° Southeast 185 213 2,700 -895 Descending Atlanta TRACON
Mon 07:56:25 PM 33.9000 -84.2833 151° Southeast 167 192 1,700 -1,000 Descending Atlanta TRACON
Mon 07:58:00 PM 33.8667 -84.3000 144° Southeast  Level FlightAware Approximate

Login

Don't have an account? Register now (free) for customized features, flight alerts, and more!